TimePST,TemperatureF,Dew PointF,Humidity,Sea Level PressureIn,VisibilityMPH,Wind Direction,Wind SpeedMPH,Gust SpeedMPH,PrecipitationIn,Events,Conditions,WindDirDegrees,DateUTC
12:15 AM,35.6,33.8,93,29.98,10.0,Calm,Calm,-,N/A,,Clear,0,2013-02-20 08:15:00
12:35 AM,35.6,33.8,93,29.98,10.0,Calm,Calm,-,N/A,,Clear,0,2013-02-20 08:35:00
12:55 AM,33.8,33.8,100,29.98,10.0,Calm,Calm,-,N/A,,Clear,0,2013-02-20 08:55:00
1:15 AM,33.8,33.8,100,29.98,10.0,North,-9999.0,-,N/A,,Clear,0,2013-02-20 09:15:00
1:35 AM,33.8,32.0,93,29.99,10.0,Calm,Calm,-,N/A,,Clear,0,2013-02-20 09:35:00
1:55 AM,33.8,33.8,100,29.99,10.0,Calm,Calm,-,N/A,,Mostly Cloudy,0,2013-02-20 09:55:00
2:15 AM,33.8,33.8,100,30.00,10.0,North,-9999.0,-,N/A,,Mostly Cloudy,0,2013-02-20 10:15:00
2:35 AM,33.8,32.0,93,30.00,10.0,Calm,Calm,-,N/A,,Scattered Clouds,0,2013-02-20 10:35:00
2:55 AM,32.0,32.0,100,30.00,10.0,Calm,Calm,-,N/A,,Partly Cloudy,0,2013-02-20 10:55:00
3:15 AM,33.8,32.0,93,30.00,10.0,Calm,Calm,-,N/A,,Clear,0,2013-02-20 11:15:00
3:35 AM,32.0,32.0,100,30.00,10.0,Calm,Calm,-,N/A,,Clear,0,2013-02-20 11:35:00
3:55 AM,35.6,35.6,100,30.00,10.0,Calm,Calm,-,N/A,,Scattered Clouds,0,2013-02-20 11:55:00
4:15 AM,35.6,35.6,100,30.00,10.0,North,-9999.0,-,N/A,,Partly Cloudy,0,2013-02-20 12:15:00
4:35 AM,37.4,35.6,93,30.00,10.0,Calm,Calm,-,N/A,,Partly Cloudy,0,2013-02-20 12:35:00
5:15 AM,39.2,37.4,93,30.00,10.0,South,3.5,-,N/A,,Overcast,170,2013-02-20 13:15:00
5:35 AM,39.2,37.4,93,30.00,10.0,South,5.8,-,N/A,,Overcast,180,2013-02-20 13:35:00
5:55 AM,39.2,39.2,100,30.00,10.0,South,4.6,-,N/A,,Overcast,190,2013-02-20 13:55:00
6:15 AM,39.2,39.2,100,30.00,10.0,South,3.5,-,N/A,,Overcast,170,2013-02-20 14:15:00
6:35 AM,39.2,39.2,100,29.99,10.0,South,5.8,-,N/A,,Overcast,180,2013-02-20 14:35:00
6:55 AM,41.0,39.2,93,29.99,10.0,South,5.8,-,N/A,,Overcast,180,2013-02-20 14:55:00
7:15 AM,41.0,39.2,93,29.99,10.0,SSE,4.6,-,N/A,,Overcast,160,2013-02-20 15:15:00
7:35 AM,41.0,39.2,93,29.98,10.0,South,4.6,-,N/A,,Overcast,170,2013-02-20 15:35:00
7:55 AM,41.0,37.4,87,29.98,10.0,South,6.9,-,N/A,,Overcast,180,2013-02-20 15:55:00
8:15 AM,41.0,37.4,87,29.98,10.0,South,9.2,-,N/A,,Overcast,180,2013-02-20 16:15:00
8:35 AM,41.0,37.4,87,29.99,6.0,South,8.1,-,N/A,Rain,Light Rain,190,2013-02-20 16:35:00
8:55 AM,41.0,39.2,93,29.99,1.8,South,3.5,-,0.02,Rain,Rain,170,2013-02-20 16:55:00
9:15 AM,41.0,39.2,93,29.99,3.0,South,5.8,-,N/A,Rain,Light Rain,170,2013-02-20 17:15:00
9:35 AM,41.0,39.2,93,30.00,6.0,South,4.6,-,N/A,,Mostly Cloudy,180,2013-02-20 17:35:00
9:55 AM,41.0,39.2,93,30.00,10.0,South,4.6,-,N/A,,Mostly Cloudy,180,2013-02-20 17:55:00
10:15 AM,41.0,39.2,93,30.00,10.0,South,4.6,-,N/A,,Overcast,170,2013-02-20 18:15:00
10:35 AM,41.0,39.2,93,30.00,10.0,South,3.5,-,N/A,,Overcast,190,2013-02-20 18:35:00
10:55 AM,41.0,39.2,93,30.00,10.0,South,6.9,-,N/A,,Overcast,190,2013-02-20 18:55:00
11:15 AM,41.0,39.2,93,30.00,10.0,South,8.1,-,N/A,,Mostly Cloudy,190,2013-02-20 19:15:00
11:35 AM,41.0,39.2,93,29.99,8.0,South,6.9,-,N/A,,Mostly Cloudy,190,2013-02-20 19:35:00
11:55 AM,42.8,39.2,87,29.99,10.0,South,6.9,-,N/A,,Partly Cloudy,180,2013-02-20 19:55:00
12:15 PM,44.6,39.2,81,29.98,9.0,South,4.6,-,N/A,Rain,Light Rain,170,2013-02-20 20:15:00
12:55 PM,42.8,37.4,81,29.98,10.0,South,8.1,-,N/A,,Mostly Cloudy,190,2013-02-20 20:55:00
1:15 PM,42.8,39.2,87,29.97,10.0,South,4.6,-,N/A,,Mostly Cloudy,170,2013-02-20 21:15:00
1:35 PM,42.8,39.2,87,29.97,5.0,South,5.8,-,N/A,Rain,Light Rain,180,2013-02-20 21:35:00
1:55 PM,41.0,39.2,93,29.97,6.0,South,4.6,-,N/A,Rain,Light Rain,170,2013-02-20 21:55:00
2:15 PM,42.8,39.2,87,29.97,9.0,South,6.9,-,N/A,Rain,Light Rain,180,2013-02-20 22:15:00
2:35 PM,42.8,39.2,87,29.97,9.0,South,4.6,-,N/A,,Clear,180,2013-02-20 22:35:00
2:55 PM,42.8,39.2,87,29.97,6.0,South,5.8,-,N/A,Rain,Light Rain,180,2013-02-20 22:55:00
3:15 PM,42.8,39.2,87,29.97,5.0,South,4.6,-,N/A,Rain,Light Rain,170,2013-02-20 23:15:00
3:35 PM,42.8,39.2,87,29.97,9.0,South,3.5,-,N/A,,Clear,170,2013-02-20 23:35:00
4:15 PM,42.8,39.2,87,29.97,10.0,South,4.6,-,N/A,,Overcast,180,2013-02-21 00:15:00
4:35 PM,42.8,39.2,87,29.97,10.0,Calm,Calm,-,N/A,,Overcast,0,2013-02-21 00:35:00
4:55 PM,42.8,39.2,87,29.97,10.0,South,3.5,-,N/A,,Overcast,180,2013-02-21 00:55:00
5:15 PM,42.8,37.4,81,29.97,10.0,Calm,Calm,-,N/A,,Scattered Clouds,0,2013-02-21 01:15:00
5:35 PM,42.8,37.4,81,29.98,10.0,SSW,6.9,-,N/A,,Partly Cloudy,200,2013-02-21 01:35:00
5:55 PM,41.0,37.4,87,29.98,10.0,Calm,Calm,-,N/A,,Clear,0,2013-02-21 01:55:00
6:15 PM,39.2,37.4,93,29.98,10.0,Calm,Calm,-,N/A,,Clear,0,2013-02-21 02:15:00
6:35 PM,39.2,37.4,93,29.98,10.0,Calm,Calm,-,N/A,,Clear,0,2013-02-21 02:35:00
6:55 PM,39.2,37.4,93,29.98,10.0,Calm,Calm,-,N/A,,Clear,0,2013-02-21 02:55:00
7:15 PM,37.4,37.4,100,29.99,10.0,North,-9999.0,-,N/A,,Clear,0,2013-02-21 03:15:00
7:35 PM,39.2,37.4,93,29.99,10.0,Calm,Calm,-,N/A,,Clear,0,2013-02-21 03:35:00
7:55 PM,39.2,37.4,93,29.99,10.0,Calm,Calm,-,N/A,,Clear,0,2013-02-21 03:55:00
8:15 PM,39.2,37.4,93,30.00,10.0,Calm,Calm,-,N/A,,Mostly Cloudy,0,2013-02-21 04:15:00
8:35 PM,41.0,37.4,87,30.00,10.0,South,4.6,-,N/A,,Overcast,190,2013-02-21 04:35:00
8:55 PM,41.0,37.4,87,30.00,10.0,Calm,Calm,-,N/A,,Mostly Cloudy,0,2013-02-21 04:55:00
9:15 PM,41.0,37.4,87,30.00,10.0,North,-9999.0,-,N/A,,Scattered Clouds,0,2013-02-21 05:15:00
9:35 PM,41.0,37.4,87,30.00,10.0,South,5.8,-,N/A,,Scattered Clouds,180,2013-02-21 05:35:00
9:55 PM,41.0,37.4,87,30.01,10.0,South,6.9,-,N/A,,Scattered Clouds,190,2013-02-21 05:55:00
10:15 PM,41.0,37.4,87,30.00,10.0,SSE,3.5,-,N/A,,Mostly Cloudy,150,2013-02-21 06:15:00
10:35 PM,41.0,35.6,81,30.00,10.0,North,-9999.0,-,N/A,,Scattered Clouds,0,2013-02-21 06:35:00
10:55 PM,41.0,35.6,81,30.00,10.0,ESE,4.6,-,N/A,,Clear,120,2013-02-21 06:55:00
11:15 PM,41.0,35.6,81,29.99,10.0,Calm,Calm,-,N/A,,Partly Cloudy,0,2013-02-21 07:15:00
11:35 PM,41.0,35.6,81,29.99,10.0,South,6.9,-,N/A,,Scattered Clouds,180,2013-02-21 07:35:00
11:55 PM,41.0,35.6,81,29.98,10.0,South,3.5,-,N/A,,Mostly Cloudy,180,2013-02-21 07:55:00